Virginia, Idaho
Current Conditions -  °F | °C
As of 3:53 PM on Thursday 27 Nov 2014 (Local Time) from KPIH Reporting Station
Few Clouds Few Clouds  
Wind Chill: 60°   Ceiling: Unl
Heat Index: 60°   Visibility: 10mi
Dew Point: 28°   Wind: 15mph
Humidity: 30%   Direction: 200°SSW
Pressure: 30.13"   Gusts: NA
Location:  42.4064°N, 112.076°W
Report Text: KPIH 272253Z 20013KT 10SM FEW120 16/M02 A3013 RMK AO2 SLP184 T01561022
Loading
Personal Weather Stations






























Interactive Weather Map New forecast layout! Learn more

10-Day Weather Forecast

Advertisements
Track Severe Weather on mobile